Time;durP1;ratioP1;P1;durP2;ratioP2;P2;SDS_P1;SDS_P2;PMS_P1;PMS_P2;Temp;Humidity;BMP_temperature;BMP_pressure;BME280_temperature;BME280_humidity;BME280_pressure;Samples;Min_cycle;Max_cycle;Signal;HPM_P1;HPM_P2
2023/12/26 00:01:16;;;;;;;0.13;0.13;;;;;;;;;;5010360;28;20052;-73
2023/12/26 00:03:44;;;;;;;0.00;0.00;;;;;;;;;;5014012;28;20042;-73
2023/12/26 00:06:12;;;;;;;0.10;0.10;;;;;;;;;;5011053;28;20053;-73
2023/12/26 00:08:46;;;;;;;0.00;0.00;;;;;;;;;;5005968;28;20044;-77
2023/12/26 00:11:15;;;;;;;0.10;0.10;;;;;;;;;;4996737;28;20193;-72
2023/12/26 00:13:42;;;;;;;0.00;0.00;;;;;;;;;;5003025;28;20042;-71
2023/12/26 00:16:10;;;;;;;0.10;0.10;;;;;;;;;;5004119;28;20053;-72
2023/12/26 00:18:37;;;;;;;0.10;0.10;;;;;;;;;;4997355;28;20054;-71
2023/12/26 00:21:05;;;;;;;0.10;0.10;;;;;;;;;;4996832;28;20049;-71
2023/12/26 00:23:34;;;;;;;0.00;0.00;;;;;;;;;;5003487;28;20038;-71
2023/12/26 00:26:02;;;;;;;0.10;0.10;;;;;;;;;;4985674;28;20582;-71
2023/12/26 00:28:30;;;;;;;0.10;0.10;;;;;;;;;;4996960;28;20048;-71
2023/12/26 00:30:59;;;;;;;0.32;0.32;;;;;;;;;;4979651;28;20620;-71
2023/12/26 00:33:26;;;;;;;0.93;0.90;;;;;;;;;;5001519;28;20073;-71
2023/12/26 00:35:58;;;;;;;0.25;0.25;;;;;;;;;;4985761;28;20054;-71
2023/12/26 00:38:26;;;;;;;0.10;0.10;;;;;;;;;;4999291;28;20504;-71
2023/12/26 00:40:54;;;;;;;0.10;0.10;;;;;;;;;;5004198;28;20080;-71
2023/12/26 00:43:22;;;;;;;0.20;0.20;;;;;;;;;;4989610;28;20096;-72
2023/12/26 00:45:50;;;;;;;0.10;0.10;;;;;;;;;;4987416;28;20050;-71
2023/12/26 00:48:17;;;;;;;0.25;0.25;;;;;;;;;;5003024;28;20050;-72
2023/12/26 00:50:45;;;;;;;0.10;0.10;;;;;;;;;;5001530;28;20049;-71
2023/12/26 00:53:13;;;;;;;0.10;0.10;;;;;;;;;;4995291;28;20072;-71
2023/12/26 00:55:40;;;;;;;9.70;1.55;;;;;;;;;;4995764;28;20045;-70
2023/12/26 00:58:08;;;;;;;0.10;0.10;;;;;;;;;;4976528;28;20050;-71
2023/12/26 01:00:36;;;;;;;0.30;0.30;;;;;;;;;;4995028;28;20104;-71
2023/12/26 01:03:05;;;;;;;0.10;0.10;;;;;;;;;;5000790;28;20500;-71
2023/12/26 01:05:32;;;;;;;0.10;0.10;;;;;;;;;;4981789;28;20432;-71
2023/12/26 01:08:00;;;;;;;0.10;0.10;;;;;;;;;;4997047;28;20037;-72
2023/12/26 01:10:28;;;;;;;0.00;0.00;;;;;;;;;;4992330;28;20502;-71
2023/12/26 01:12:55;;;;;;;0.08;0.08;;;;;;;;;;5002760;28;20462;-71
2023/12/26 01:15:23;;;;;;;0.13;0.13;;;;;;;;;;5001167;28;20053;-71
2023/12/26 01:17:52;;;;;;;0.10;0.10;;;;;;;;;;5003927;28;20069;-71
2023/12/26 01:20:20;;;;;;;0.10;0.10;;;;;;;;;;5003445;28;20100;-71
2023/12/26 01:22:47;;;;;;;0.10;0.10;;;;;;;;;;4987349;28;20062;-71
2023/12/26 01:25:15;;;;;;;0.10;0.10;;;;;;;;;;5002010;28;20057;-72
2023/12/26 01:27:42;;;;;;;0.00;0.00;;;;;;;;;;4981599;28;20089;-72
2023/12/26 01:30:10;;;;;;;0.05;0.05;;;;;;;;;;4999893;28;20077;-71
2023/12/26 01:32:38;;;;;;;0.10;0.10;;;;;;;;;;5000711;28;20057;-71
2023/12/26 01:35:06;;;;;;;0.10;0.10;;;;;;;;;;5002502;28;20419;-71
2023/12/26 01:37:34;;;;;;;0.10;0.10;;;;;;;;;;5001763;28;21304;-71
2023/12/26 01:40:03;;;;;;;0.35;0.35;;;;;;;;;;4984954;28;20538;-71
2023/12/26 01:42:31;;;;;;;0.05;0.05;;;;;;;;;;4979484;28;20065;-72
2023/12/26 01:45:00;;;;;;;0.10;0.10;;;;;;;;;;5001943;28;20125;-72
2023/12/26 01:47:30;;;;;;;0.10;0.10;;;;;;;;;;4987162;28;20057;-71
2023/12/26 01:49:58;;;;;;;0.10;0.10;;;;;;;;;;4985896;28;20088;-72
2023/12/26 01:52:25;;;;;;;0.20;0.20;;;;;;;;;;5001063;28;20046;-71
2023/12/26 01:54:53;;;;;;;0.10;0.10;;;;;;;;;;4999620;28;20049;-71
2023/12/26 01:57:20;;;;;;;0.00;0.00;;;;;;;;;;5003488;28;20042;-72
2023/12/26 01:59:48;;;;;;;0.10;0.10;;;;;;;;;;5001195;28;20608;-72
2023/12/26 02:02:16;;;;;;;0.05;0.05;;;;;;;;;;4982382;28;20396;-71
2023/12/26 02:04:44;;;;;;;0.10;0.10;;;;;;;;;;4999654;28;20145;-71
2023/12/26 02:07:11;;;;;;;0.10;0.10;;;;;;;;;;4987324;28;20124;-71
2023/12/26 02:09:39;;;;;;;0.00;0.00;;;;;;;;;;5002948;28;20053;-71
2023/12/26 02:12:08;;;;;;;0.05;0.05;;;;;;;;;;4998623;28;20129;-72
2023/12/26 02:14:36;;;;;;;0.10;0.10;;;;;;;;;;5003583;28;20038;-72
2023/12/26 02:17:05;;;;;;;0.10;0.10;;;;;;;;;;5000985;28;20124;-71
2023/12/26 02:19:32;;;;;;;0.10;0.10;;;;;;;;;;5007213;28;20046;-72
2023/12/26 02:22:00;;;;;;;0.10;0.10;;;;;;;;;;5007112;28;20092;-71
2023/12/26 02:24:28;;;;;;;0.00;0.00;;;;;;;;;;5005133;28;20042;-71
2023/12/26 02:26:56;;;;;;;0.00;0.00;;;;;;;;;;5003359;28;20137;-72
2023/12/26 02:29:25;;;;;;;0.10;0.10;;;;;;;;;;5002751;28;20497;-71
2023/12/26 02:31:54;;;;;;;0.40;0.40;;;;;;;;;;4984882;28;20060;-72
2023/12/26 02:34:23;;;;;;;0.45;0.45;;;;;;;;;;5005950;28;20058;-71
2023/12/26 02:36:51;;;;;;;0.10;0.10;;;;;;;;;;5001603;28;20042;-71
2023/12/26 02:39:19;;;;;;;0.10;0.10;;;;;;;;;;5004504;28;20057;-71
2023/12/26 02:41:47;;;;;;;0.10;0.10;;;;;;;;;;5007362;28;20139;-71
2023/12/26 02:44:14;;;;;;;0.10;0.10;;;;;;;;;;4999825;28;20052;-72
2023/12/26 02:46:42;;;;;;;0.10;0.10;;;;;;;;;;5005133;28;20141;-71
2023/12/26 02:49:09;;;;;;;0.28;0.28;;;;;;;;;;5006286;28;20408;-71
2023/12/26 02:51:37;;;;;;;0.00;0.00;;;;;;;;;;5006248;28;20082;-71
2023/12/26 02:54:05;;;;;;;0.10;0.10;;;;;;;;;;5003473;28;20495;-72
2023/12/26 02:56:32;;;;;;;0.10;0.10;;;;;;;;;;5001443;28;20147;-72
2023/12/26 02:59:00;;;;;;;0.00;0.00;;;;;;;;;;4987314;28;20073;-72
2023/12/26 03:01:27;;;;;;;0.30;0.30;;;;;;;;;;5003148;28;20381;-71
2023/12/26 03:03:55;;;;;;;0.22;0.22;;;;;;;;;;5004704;28;20056;-71
2023/12/26 03:06:23;;;;;;;0.10;0.10;;;;;;;;;;4980828;28;20103;-71
2023/12/26 03:08:51;;;;;;;0.25;0.25;;;;;;;;;;4992943;28;20108;-71
2023/12/26 03:11:18;;;;;;;0.10;0.10;;;;;;;;;;4994224;28;20057;-71
2023/12/26 03:13:46;;;;;;;0.32;0.32;;;;;;;;;;5007272;28;20053;-71
2023/12/26 03:16:14;;;;;;;0.10;0.10;;;;;;;;;;5003077;28;20054;-71
2023/12/26 03:18:42;;;;;;;0.10;0.10;;;;;;;;;;5009055;28;20435;-72
2023/12/26 03:21:10;;;;;;;0.22;0.22;;;;;;;;;;4987445;28;20405;-72
2023/12/26 03:23:37;;;;;;;0.20;0.20;;;;;;;;;;5000935;28;20073;-71
2023/12/26 03:26:05;;;;;;;0.10;0.10;;;;;;;;;;5001796;28;20524;-71
2023/12/26 03:28:34;;;;;;;0.10;0.10;;;;;;;;;;4996362;28;20069;-71
2023/12/26 03:31:08;;;;;;;0.00;0.00;;;;;;;;;;5005017;28;20053;-71
2023/12/26 03:33:40;;;;;;;0.60;0.60;;;;;;;;;;5006781;28;20059;-71
2023/12/26 03:36:08;;;;;;;0.00;0.00;;;;;;;;;;4985830;28;20081;-71
2023/12/26 03:38:37;;;;;;;0.00;0.00;;;;;;;;;;5000201;28;20519;-71
2023/12/26 03:41:05;;;;;;;0.00;0.00;;;;;;;;;;5005194;28;20041;-72
2023/12/26 03:43:32;;;;;;;0.03;0.03;;;;;;;;;;4977350;28;20460;-72
2023/12/26 03:46:01;;;;;;;0.10;0.10;;;;;;;;;;4987590;28;20133;-71
2023/12/26 03:48:28;;;;;;;0.10;0.10;;;;;;;;;;5005572;28;20105;-71
2023/12/26 03:50:56;;;;;;;0.10;0.10;;;;;;;;;;5005717;28;20508;-71
2023/12/26 03:53:24;;;;;;;0.00;0.00;;;;;;;;;;4983704;28;20510;-71
2023/12/26 03:55:52;;;;;;;0.00;0.00;;;;;;;;;;5002334;28;20057;-71
2023/12/26 03:58:19;;;;;;;0.10;0.10;;;;;;;;;;5002830;28;20053;-71
2023/12/26 04:00:47;;;;;;;0.00;0.00;;;;;;;;;;4985443;28;20046;-72
2023/12/26 04:03:16;;;;;;;0.10;0.10;;;;;;;;;;5004621;28;20515;-71
2023/12/26 04:05:44;;;;;;;0.00;0.00;;;;;;;;;;5004215;28;20103;-71
2023/12/26 04:08:12;;;;;;;3.40;1.50;;;;;;;;;;4972013;28;20286;-71
2023/12/26 04:10:40;;;;;;;0.10;0.10;;;;;;;;;;4985595;28;20121;-72
2023/12/26 04:13:08;;;;;;;0.10;0.10;;;;;;;;;;4998691;28;20046;-72
2023/12/26 04:15:35;;;;;;;0.90;0.90;;;;;;;;;;5002994;28;20069;-71
2023/12/26 04:18:03;;;;;;;0.45;0.45;;;;;;;;;;5002459;28;20069;-72
2023/12/26 04:20:31;;;;;;;0.20;0.20;;;;;;;;;;4986116;28;20563;-71
2023/12/26 04:22:59;;;;;;;0.10;0.10;;;;;;;;;;4987643;28;20050;-71
2023/12/26 04:25:27;;;;;;;0.10;0.10;;;;;;;;;;5001468;28;20049;-71
2023/12/26 04:27:54;;;;;;;0.10;0.10;;;;;;;;;;4998507;28;20204;-71
2023/12/26 04:30:23;;;;;;;0.10;0.10;;;;;;;;;;5001433;28;20725;-72
2023/12/26 04:32:51;;;;;;;0.10;0.10;;;;;;;;;;5005066;28;20054;-71
2023/12/26 04:35:19;;;;;;;0.00;0.00;;;;;;;;;;5004077;28;20342;-71
2023/12/26 04:37:47;;;;;;;0.10;0.10;;;;;;;;;;4986485;28;20153;-71
2023/12/26 04:40:15;;;;;;;0.10;0.10;;;;;;;;;;4984826;28;20130;-71
2023/12/26 04:42:43;;;;;;;0.10;0.10;;;;;;;;;;5002112;28;20057;-71
2023/12/26 04:45:12;;;;;;;0.10;0.10;;;;;;;;;;4980338;28;20073;-71
2023/12/26 04:47:40;;;;;;;0.20;0.20;;;;;;;;;;4996608;28;20041;-71
2023/12/26 04:50:08;;;;;;;0.13;0.13;;;;;;;;;;5003718;28;20054;-71
2023/12/26 04:52:36;;;;;;;0.00;0.00;;;;;;;;;;4985349;28;20053;-71
2023/12/26 04:55:04;;;;;;;0.00;0.00;;;;;;;;;;4977073;28;20547;-71
2023/12/26 04:57:31;;;;;;;0.10;0.10;;;;;;;;;;4972521;28;20431;-71
2023/12/26 04:59:59;;;;;;;0.00;0.00;;;;;;;;;;4974285;28;20096;-71
2023/12/26 05:02:27;;;;;;;0.10;0.10;;;;;;;;;;4977418;28;20053;-71
2023/12/26 05:04:55;;;;;;;0.10;0.10;;;;;;;;;;5001299;28;20131;-71
2023/12/26 05:07:22;;;;;;;0.10;0.10;;;;;;;;;;4999776;28;20049;-71
2023/12/26 05:09:50;;;;;;;0.40;0.40;;;;;;;;;;4974774;28;20180;-71
2023/12/26 05:12:18;;;;;;;0.85;0.45;;;;;;;;;;4996266;28;20107;-71
2023/12/26 05:14:46;;;;;;;0.08;0.08;;;;;;;;;;4993678;28;20583;-71
2023/12/26 05:17:14;;;;;;;0.28;0.28;;;;;;;;;;5001690;28;20073;-71
2023/12/26 05:19:42;;;;;;;0.10;0.10;;;;;;;;;;4983153;28;20069;-71
2023/12/26 05:22:10;;;;;;;0.00;0.00;;;;;;;;;;4985142;28;20136;-71
2023/12/26 05:24:39;;;;;;;0.10;0.10;;;;;;;;;;4985091;28;20103;-71
2023/12/26 05:27:20;;;;;;;0.10;0.10;;;;;;;;;;4956867;28;24319;-71
2023/12/26 05:29:47;;;;;;;0.10;0.10;;;;;;;;;;4990594;28;20050;-72
2023/12/26 05:32:15;;;;;;;0.10;0.10;;;;;;;;;;4984015;28;20523;-71
2023/12/26 05:34:45;;;;;;;2.10;0.25;;;;;;;;;;4986653;28;20381;-71
2023/12/26 05:37:12;;;;;;;0.10;0.10;;;;;;;;;;5003717;28;20112;-72
2023/12/26 05:39:43;;;;;;;0.10;0.10;;;;;;;;;;4998797;28;20062;-71
2023/12/26 05:42:11;;;;;;;0.20;0.20;;;;;;;;;;4984654;28;20046;-71
2023/12/26 05:44:39;;;;;;;0.10;0.10;;;;;;;;;;4986317;28;20033;-71
2023/12/26 05:47:07;;;;;;;0.10;0.10;;;;;;;;;;5003841;28;20050;-71
2023/12/26 05:49:35;;;;;;;0.00;0.00;;;;;;;;;;4988074;28;20476;-71
2023/12/26 05:52:03;;;;;;;0.10;0.10;;;;;;;;;;4989160;28;20626;-71
2023/12/26 05:54:31;;;;;;;0.10;0.10;;;;;;;;;;4988221;28;20049;-71
2023/12/26 05:56:58;;;;;;;0.10;0.10;;;;;;;;;;4982645;28;20064;-71
2023/12/26 05:59:26;;;;;;;0.08;0.08;;;;;;;;;;5001707;28;20058;-72
2023/12/26 06:01:54;;;;;;;0.10;0.10;;;;;;;;;;5001113;28;20411;-71
2023/12/26 06:04:22;;;;;;;0.03;0.03;;;;;;;;;;4989386;28;20053;-71
2023/12/26 06:06:50;;;;;;;0.28;0.28;;;;;;;;;;4997732;28;20571;-71
2023/12/26 06:09:40;;;;;;;0.10;0.10;;;;;;;;;;5028771;22;20057;-79
2023/12/26 06:16:47;;;;;;;;;;;;;;;;;;5049716;28;20057;-80
2023/12/26 06:20:01;;;;;;;0.00;0.00;;;;;;;;;;5044352;28;19936;-79
2023/12/26 06:23:32;;;;;;;0.10;0.10;;;;;;;;;;4967485;28;20063;-82
2023/12/26 06:27:02;;;;;;;0.08;0.08;;;;;;;;;;4961598;28;20206;-84
2023/12/26 06:30:44;;;;;;;0.00;0.00;;;;;;;;;;4926302;28;20027;-84
2023/12/26 06:33:23;;;;;;;0.10;0.10;;;;;;;;;;4992580;28;20035;-84
2023/12/26 06:41:34;;;;;;;0.30;0.30;;;;;;;;;;4931120;28;20484;-82
2023/12/26 06:48:35;;;;;;;0.10;0.10;;;;;;;;;;4958289;28;20051;-82
2023/12/26 06:56:17;;;;;;;0.10;0.10;;;;;;;;;;4907018;29;20114;-82
2023/12/26 07:03:08;;;;;;;0.10;0.10;;;;;;;;;;4952626;28;20086;-82
2023/12/26 07:06:47;;;;;;;0.10;0.10;;;;;;;;;;4911724;28;20050;-82
2023/12/26 07:09:26;;;;;;;0.04;0.04;;;;;;;;;;4516046;28;12651129;-81
2023/12/26 07:12:19;;;;;;;0.00;0.00;;;;;;;;;;4957860;28;20054;-81
2023/12/26 07:19:19;;;;;;;0.10;0.10;;;;;;;;;;4961801;28;20061;-82
2023/12/26 07:22:45;;;;;;;0.10;0.10;;;;;;;;;;4903782;29;20107;-82
2023/12/26 07:25:37;;;;;;;0.10;0.10;;;;;;;;;;4892497;29;20040;-81
2023/12/26 07:29:17;;;;;;;0.75;0.75;;;;;;;;;;4900602;29;20055;-83
2023/12/26 07:32:33;;;;;;;0.10;0.10;;;;;;;;;;4913118;29;20047;-81
2023/12/26 07:35:49;;;;;;;0.38;0.38;;;;;;;;;;4847218;29;20063;-82
2023/12/26 07:39:19;;;;;;;0.10;0.10;;;;;;;;;;4913517;29;20114;-82
2023/12/26 07:46:57;;;;;;;0.30;0.30;;;;;;;;;;4948861;29;20051;-82
2023/12/26 07:49:59;;;;;;;0.10;0.10;;;;;;;;;;4951278;29;20063;-82
2023/12/26 07:57:58;;;;;;;;;;;;;;;;;;;;;
2023/12/26 08:01:02;;;;;;;0.20;0.20;;;;;;;;;;5014670;28;20105;-81
2023/12/26 08:07:37;;;;;;;0.40;0.40;;;;;;;;;;5017556;28;20079;-81
2023/12/26 08:11:07;;;;;;;0.38;0.38;;;;;;;;;;5017207;28;20045;-81
2023/12/26 08:22:40;;;;;;;0.15;0.13;;;;;;;;;;4998259;28;20038;-82
2023/12/26 08:30:19;;;;;;;0.10;0.10;;;;;;;;;;4943022;28;20038;-81
2023/12/26 08:34:33;;;;;;;;;;;;;;;;;;;;;
2023/12/26 08:51:08;;;;;;;0.20;0.20;;;;;;;;;;4951870;28;20119;-81
2023/12/26 08:54:42;;;;;;;1.90;0.70;;;;;;;;;;4935988;28;20051;-82
2023/12/26 08:58:25;;;;;;;;;;;;;;;;;;;;;
2023/12/26 09:02:23;;;;;;;0.13;0.13;;;;;;;;;;4880454;29;20466;-81
2023/12/26 09:10:42;;;;;;;0.22;0.22;;;;;;;;;;4817706;29;20855;-81
2023/12/26 09:21:21;;;;;;;0.57;0.47;;;;;;;;;;5049138;22;20048;-74
2023/12/26 09:23:49;;;;;;;0.20;0.20;;;;;;;;;;5036666;28;20051;-73
2023/12/26 09:26:21;;;;;;;0.10;0.10;;;;;;;;;;5027197;28;20450;-73
2023/12/26 09:28:49;;;;;;;0.22;0.22;;;;;;;;;;5025053;28;20411;-74
2023/12/26 09:31:16;;;;;;;0.20;0.20;;;;;;;;;;5030370;28;20045;-74
2023/12/26 09:33:44;;;;;;;0.32;0.32;;;;;;;;;;5031424;28;20064;-74
2023/12/26 09:36:12;;;;;;;0.32;0.32;;;;;;;;;;5033125;28;20410;-74
2023/12/26 09:38:41;;;;;;;0.47;0.47;;;;;;;;;;5026329;28;20049;-74
2023/12/26 09:41:09;;;;;;;1.10;1.08;;;;;;;;;;5030550;28;20414;-73
2023/12/26 09:43:38;;;;;;;0.52;0.52;;;;;;;;;;5026722;28;20132;-73
2023/12/26 09:46:06;;;;;;;0.10;0.10;;;;;;;;;;5036945;28;20045;-73
2023/12/26 09:48:33;;;;;;;1.30;1.30;;;;;;;;;;5032534;28;20325;-74
2023/12/26 09:51:07;;;;;;;0.63;0.57;;;;;;;;;;5030222;28;20102;-74
2023/12/26 09:53:37;;;;;;;0.52;0.47;;;;;;;;;;5030459;28;20465;-74
2023/12/26 09:56:06;;;;;;;0.13;0.13;;;;;;;;;;5029368;28;20678;-74
2023/12/26 09:58:35;;;;;;;0.38;0.38;;;;;;;;;;5028555;28;20045;-74
2023/12/26 10:01:03;;;;;;;0.10;0.10;;;;;;;;;;5030598;28;20058;-74
2023/12/26 10:03:32;;;;;;;0.47;0.47;;;;;;;;;;5029115;28;20041;-74
2023/12/26 10:06:01;;;;;;;0.10;0.10;;;;;;;;;;5028098;28;20047;-74
2023/12/26 10:08:28;;;;;;;0.90;0.20;;;;;;;;;;5026751;28;20045;-74
2023/12/26 10:10:56;;;;;;;0.30;0.30;;;;;;;;;;5027829;28;20140;-75
2023/12/26 10:13:24;;;;;;;0.00;0.00;;;;;;;;;;5010504;28;20534;-74
2023/12/26 10:15:55;;;;;;;0.55;0.40;;;;;;;;;;4985322;28;20045;-73
2023/12/26 10:18:27;;;;;;;0.52;0.52;;;;;;;;;;4986149;28;20077;-76
2023/12/26 10:20:55;;;;;;;;;;;;;;;;;;5021300;28;24544;-76
2023/12/26 10:23:22;;;;;;;2.75;1.45;;;;;;;;;;5031260;28;19925;-77
2023/12/26 10:25:50;;;;;;;0.13;0.13;;;;;;;;;;5011601;28;20067;-75
2023/12/26 10:28:18;;;;;;;0.10;0.10;;;;;;;;;;5020559;28;20077;-74
2023/12/26 10:30:46;;;;;;;0.32;0.32;;;;;;;;;;5024426;28;20343;-77
2023/12/26 10:33:23;;;;;;;0.88;0.85;;;;;;;;;;5022791;28;20450;-75
2023/12/26 10:36:01;;;;;;;0.20;0.20;;;;;;;;;;5017728;28;20041;-76
2023/12/26 10:38:29;;;;;;;0.10;0.10;;;;;;;;;;5016280;28;20359;-75
2023/12/26 10:40:59;;;;;;;0.38;0.38;;;;;;;;;;5015277;28;20045;-76
2023/12/26 10:43:31;;;;;;;0.00;0.00;;;;;;;;;;5015058;28;20049;-74
2023/12/26 10:46:02;;;;;;;0.25;0.25;;;;;;;;;;5034203;28;20134;-74
2023/12/26 10:48:33;;;;;;;0.00;0.00;;;;;;;;;;5021157;28;20069;-74
2023/12/26 10:51:02;;;;;;;0.28;0.28;;;;;;;;;;5020304;28;20103;-74
2023/12/26 10:53:43;;;;;;;0.10;0.10;;;;;;;;;;5013600;28;20049;-74
2023/12/26 10:56:12;;;;;;;0.30;0.30;;;;;;;;;;5026906;28;20144;-73
2023/12/26 10:58:41;;;;;;;0.10;0.10;;;;;;;;;;5030631;28;20131;-73
2023/12/26 11:01:09;;;;;;;0.43;0.43;;;;;;;;;;5012079;28;20063;-73
2023/12/26 11:03:37;;;;;;;0.10;0.10;;;;;;;;;;5027004;28;20049;-74
2023/12/26 11:06:05;;;;;;;1.85;1.27;;;;;;;;;;5030998;28;20037;-74
2023/12/26 11:08:32;;;;;;;0.10;0.10;;;;;;;;;;5013610;28;20041;-74
2023/12/26 11:11:00;;;;;;;0.57;0.57;;;;;;;;;;5004404;28;20041;-74
2023/12/26 11:13:28;;;;;;;1.88;0.30;;;;;;;;;;5024167;28;20049;-74
2023/12/26 11:15:55;;;;;;;1.15;1.05;;;;;;;;;;5027272;28;20064;-74
2023/12/26 11:18:23;;;;;;;0.43;0.43;;;;;;;;;;5012657;28;20059;-74
2023/12/26 11:20:52;;;;;;;0.10;0.10;;;;;;;;;;5028690;28;20056;-74
2023/12/26 11:23:21;;;;;;;0.25;0.25;;;;;;;;;;5032149;28;20509;-74
2023/12/26 11:25:49;;;;;;;0.10;0.10;;;;;;;;;;5029151;28;20053;-74
2023/12/26 11:28:17;;;;;;;0.17;0.17;;;;;;;;;;5031910;28;20410;-73
2023/12/26 11:30:45;;;;;;;0.25;0.10;;;;;;;;;;5034377;28;20048;-74
2023/12/26 11:33:13;;;;;;;1.30;0.95;;;;;;;;;;5020948;28;20049;-74
2023/12/26 11:35:41;;;;;;;0.10;0.10;;;;;;;;;;5034240;28;20053;-74
2023/12/26 11:38:09;;;;;;;0.10;0.10;;;;;;;;;;5030662;28;20423;-74
2023/12/26 11:40:36;;;;;;;2.17;0.63;;;;;;;;;;5029125;28;20041;-75
2023/12/26 11:43:04;;;;;;;0.20;0.20;;;;;;;;;;5015303;28;20566;-74
2023/12/26 11:45:32;;;;;;;0.75;0.40;;;;;;;;;;5020416;28;20371;-74
2023/12/26 11:47:59;;;;;;;0.30;0.30;;;;;;;;;;5024275;28;20104;-74
2023/12/26 11:50:28;;;;;;;0.20;0.20;;;;;;;;;;5032982;28;20041;-74
2023/12/26 11:52:55;;;;;;;0.10;0.10;;;;;;;;;;5015750;28;20169;-74
2023/12/26 11:55:23;;;;;;;0.25;0.25;;;;;;;;;;5012746;28;20574;-74
2023/12/26 11:57:51;;;;;;;0.20;0.20;;;;;;;;;;5034623;28;20057;-74
2023/12/26 12:00:19;;;;;;;0.20;0.20;;;;;;;;;;5034302;28;20060;-74
2023/12/26 12:02:47;;;;;;;1.15;0.40;;;;;;;;;;5013827;28;20488;-75
2023/12/26 12:05:15;;;;;;;0.52;0.38;;;;;;;;;;5028221;28;20478;-74
2023/12/26 12:08:02;;;;;;;0.22;0.22;;;;;;;;;;5032219;28;20045;-74
2023/12/26 12:10:30;;;;;;;0.13;0.10;;;;;;;;;;5050980;22;20077;-80
2023/12/26 12:12:58;;;;;;;0.30;0.30;;;;;;;;;;5040002;28;20053;-80
2023/12/26 12:15:25;;;;;;;3.90;0.80;;;;;;;;;;5037944;28;20057;-80
2023/12/26 12:17:55;;;;;;;0.63;0.63;;;;;;;;;;5028921;28;20049;-80
2023/12/26 12:20:22;;;;;;;0.20;0.20;;;;;;;;;;5029085;28;20054;-80
2023/12/26 12:22:50;;;;;;;0.10;0.10;;;;;;;;;;5020627;28;20217;-80
2023/12/26 12:25:17;;;;;;;0.28;0.28;;;;;;;;;;5027445;28;20038;-80
2023/12/26 12:28:05;;;;;;;1.55;0.47;;;;;;;;;;5010712;28;20093;-80
2023/12/26 12:30:33;;;;;;;0.63;0.63;;;;;;;;;;5006100;28;20054;-80
2023/12/26 12:33:19;;;;;;;1.17;0.65;;;;;;;;;;5018227;28;20050;-80
2023/12/26 12:35:47;;;;;;;0.20;0.20;;;;;;;;;;4996566;28;20112;-81
2023/12/26 12:38:19;;;;;;;0.10;0.10;;;;;;;;;;5013871;28;20045;-80
2023/12/26 12:40:47;;;;;;;0.20;0.20;;;;;;;;;;5015669;28;20108;-81
2023/12/26 12:43:17;;;;;;;0.50;0.50;;;;;;;;;;5018162;28;20161;-80
2023/12/26 12:45:45;;;;;;;0.20;0.20;;;;;;;;;;5009307;28;20049;-80
2023/12/26 12:48:12;;;;;;;0.40;0.40;;;;;;;;;;5010421;28;20042;-81
2023/12/26 12:50:40;;;;;;;0.30;0.30;;;;;;;;;;5017505;28;20077;-79
2023/12/26 12:53:08;;;;;;;1.08;0.80;;;;;;;;;;5026419;28;20065;-80
2023/12/26 12:55:41;;;;;;;0.10;0.10;;;;;;;;;;5031214;28;20054;-79
2023/12/26 12:58:09;;;;;;;0.17;0.17;;;;;;;;;;5029770;28;20057;-80
2023/12/26 13:00:36;;;;;;;0.70;0.60;;;;;;;;;;5020429;28;20048;-80
2023/12/26 13:03:04;;;;;;;0.10;0.10;;;;;;;;;;5033670;28;20026;-79
2023/12/26 13:05:48;;;;;;;1.10;0.73;;;;;;;;;;5034099;28;20074;-80
2023/12/26 13:08:15;;;;;;;0.10;0.10;;;;;;;;;;5037038;28;20072;-81
2023/12/26 13:10:46;;;;;;;0.52;0.40;;;;;;;;;;5031852;28;20113;-80
2023/12/26 13:13:13;;;;;;;0.10;0.10;;;;;;;;;;5037273;28;20053;-80
2023/12/26 13:15:40;;;;;;;0.20;0.20;;;;;;;;;;5025791;28;20101;-80
2023/12/26 13:18:08;;;;;;;1.98;0.50;;;;;;;;;;5019388;28;20080;-79
2023/12/26 13:20:39;;;;;;;0.10;0.10;;;;;;;;;;5039254;28;20122;-80
2023/12/26 13:23:07;;;;;;;0.13;0.13;;;;;;;;;;5021522;28;20042;-80
2023/12/26 13:25:38;;;;;;;0.10;0.10;;;;;;;;;;5028328;28;20152;-81
2023/12/26 13:28:06;;;;;;;3.45;0.88;;;;;;;;;;5020591;28;20038;-80
2023/12/26 13:30:34;;;;;;;1.00;1.00;;;;;;;;;;5013388;28;20042;-81
2023/12/26 13:33:01;;;;;;;0.57;0.57;;;;;;;;;;5010002;28;20039;-80
2023/12/26 13:35:29;;;;;;;1.35;0.65;;;;;;;;;;5015491;28;20053;-80
2023/12/26 13:37:56;;;;;;;0.85;0.68;;;;;;;;;;5010543;28;20503;-80
2023/12/26 13:40:26;;;;;;;1.20;1.10;;;;;;;;;;5023620;28;20049;-80
2023/12/26 13:42:53;;;;;;;0.68;0.68;;;;;;;;;;5023886;28;20105;-80
2023/12/26 13:45:21;;;;;;;0.52;0.40;;;;;;;;;;5018979;28;20038;-80
2023/12/26 13:47:48;;;;;;;0.30;0.30;;;;;;;;;;5017051;28;20088;-80
2023/12/26 13:50:16;;;;;;;5.80;0.35;;;;;;;;;;5019966;28;20049;-80
2023/12/26 13:52:43;;;;;;;0.17;0.17;;;;;;;;;;5029718;28;20038;-80
2023/12/26 13:55:10;;;;;;;0.10;0.10;;;;;;;;;;5022951;28;20046;-79
2023/12/26 13:57:38;;;;;;;0.10;0.10;;;;;;;;;;5017740;28;20058;-80
2023/12/26 14:00:05;;;;;;;0.10;0.10;;;;;;;;;;5017289;28;20133;-80
2023/12/26 14:02:38;;;;;;;0.10;0.10;;;;;;;;;;5027359;28;20100;-80
2023/12/26 14:05:06;;;;;;;3.30;0.57;;;;;;;;;;5007397;28;20117;-80
2023/12/26 14:07:34;;;;;;;0.30;0.30;;;;;;;;;;5000875;28;20132;-79
2023/12/26 14:10:02;;;;;;;0.45;0.40;;;;;;;;;;5017481;28;20073;-80
2023/12/26 14:12:30;;;;;;;0.55;0.30;;;;;;;;;;5019350;28;20530;-80
2023/12/26 14:14:57;;;;;;;0.32;0.32;;;;;;;;;;5021497;28;20045;-81
2023/12/26 14:17:25;;;;;;;1.33;0.82;;;;;;;;;;5000200;28;20065;-80
2023/12/26 14:19:52;;;;;;;0.10;0.10;;;;;;;;;;5017478;28;20052;-80
2023/12/26 14:22:23;;;;;;;0.10;0.10;;;;;;;;;;4992371;28;20069;-79
2023/12/26 14:24:51;;;;;;;0.10;0.10;;;;;;;;;;5019765;28;20110;-80
2023/12/26 14:27:18;;;;;;;0.30;0.30;;;;;;;;;;5014954;28;20463;-78
2023/12/26 14:29:45;;;;;;;0.00;0.00;;;;;;;;;;5010783;28;20054;-78
2023/12/26 14:32:13;;;;;;;0.57;0.57;;;;;;;;;;4997520;28;20053;-78
2023/12/26 14:34:41;;;;;;;0.10;0.10;;;;;;;;;;4998506;28;20053;-79
2023/12/26 14:37:09;;;;;;;1.80;1.17;;;;;;;;;;5012506;28;20144;-79
2023/12/26 14:39:37;;;;;;;0.10;0.10;;;;;;;;;;4994211;28;20486;-78
2023/12/26 14:42:04;;;;;;;0.10;0.10;;;;;;;;;;5018133;28;20054;-79
2023/12/26 14:44:31;;;;;;;0.10;0.10;;;;;;;;;;5012205;28;20530;-79
2023/12/26 14:46:59;;;;;;;0.45;0.45;;;;;;;;;;5003921;28;20076;-78
2023/12/26 14:49:26;;;;;;;0.10;0.10;;;;;;;;;;5013203;28;20468;-78
2023/12/26 14:51:54;;;;;;;0.38;0.38;;;;;;;;;;5007323;28;20881;-78
2023/12/26 14:54:22;;;;;;;0.10;0.10;;;;;;;;;;5009644;28;20492;-78
2023/12/26 14:56:50;;;;;;;0.10;0.10;;;;;;;;;;5010875;28;20057;-79
2023/12/26 14:59:17;;;;;;;0.10;0.10;;;;;;;;;;5008687;28;20046;-78
2023/12/26 15:01:45;;;;;;;0.10;0.10;;;;;;;;;;5008170;28;20050;-78
2023/12/26 15:04:18;;;;;;;0.10;0.10;;;;;;;;;;4983445;28;20039;-78
2023/12/26 15:06:50;;;;;;;2.20;0.40;;;;;;;;;;5007599;28;20042;-79
2023/12/26 15:09:17;;;;;;;0.28;0.28;;;;;;;;;;4998333;28;20062;-78
2023/12/26 15:11:46;;;;;;;0.40;0.40;;;;;;;;;;5017897;28;20072;-78
2023/12/26 15:14:13;;;;;;;0.10;0.10;;;;;;;;;;5016588;28;20523;-78
2023/12/26 15:17:00;;;;;;;0.10;0.10;;;;;;;;;;5006803;28;20038;-77
2023/12/26 15:19:28;;;;;;;0.10;0.10;;;;;;;;;;5011093;28;20056;-79
2023/12/26 15:21:55;;;;;;;0.10;0.10;;;;;;;;;;5006771;28;20451;-81
2023/12/26 15:24:23;;;;;;;0.10;0.10;;;;;;;;;;5018811;28;20041;-78
2023/12/26 15:26:50;;;;;;;0.13;0.10;;;;;;;;;;5006324;28;20045;-79
2023/12/26 15:29:18;;;;;;;0.20;0.20;;;;;;;;;;5023969;28;20131;-79
2023/12/26 15:31:48;;;;;;;0.20;0.20;;;;;;;;;;5011261;28;20050;-79
2023/12/26 15:34:16;;;;;;;0.70;0.57;;;;;;;;;;5015466;28;20056;-79
2023/12/26 15:36:44;;;;;;;1.90;1.00;;;;;;;;;;5014868;28;20439;-79
2023/12/26 15:39:11;;;;;;;0.10;0.10;;;;;;;;;;5013482;28;20054;-78
2023/12/26 15:41:46;;;;;;;0.20;0.10;;;;;;;;;;5013072;28;20045;-78
2023/12/26 15:44:13;;;;;;;3.53;1.58;;;;;;;;;;5016742;28;20086;-79
2023/12/26 15:46:41;;;;;;;0.10;0.10;;;;;;;;;;5014224;28;20056;-79
2023/12/26 15:49:08;;;;;;;0.20;0.20;;;;;;;;;;5014952;28;20100;-78
2023/12/26 15:51:36;;;;;;;0.10;0.10;;;;;;;;;;5004149;28;20109;-79
2023/12/26 15:54:03;;;;;;;0.30;0.30;;;;;;;;;;5003174;28;20046;-79
2023/12/26 15:56:31;;;;;;;0.25;0.25;;;;;;;;;;5016468;28;20069;-78
2023/12/26 15:58:59;;;;;;;0.13;0.13;;;;;;;;;;5017382;28;20053;-77
2023/12/26 16:01:26;;;;;;;0.08;0.08;;;;;;;;;;5014340;28;20053;-79
2023/12/26 16:03:54;;;;;;;0.10;0.10;;;;;;;;;;5015863;28;20136;-78
2023/12/26 16:06:26;;;;;;;0.08;0.08;;;;;;;;;;5015804;28;20066;-79
2023/12/26 16:08:54;;;;;;;0.20;0.20;;;;;;;;;;5015001;28;20045;-79
2023/12/26 16:11:22;;;;;;;0.20;0.20;;;;;;;;;;5015086;28;20115;-79
2023/12/26 16:13:49;;;;;;;0.10;0.10;;;;;;;;;;5010862;28;20124;-78
2023/12/26 16:16:17;;;;;;;0.10;0.10;;;;;;;;;;5014158;28;20077;-79
2023/12/26 16:18:44;;;;;;;0.10;0.10;;;;;;;;;;5001580;28;20080;-79
2023/12/26 16:21:12;;;;;;;0.00;0.00;;;;;;;;;;5011787;28;20129;-79
2023/12/26 16:23:40;;;;;;;0.00;0.00;;;;;;;;;;5004112;28;20070;-79
2023/12/26 16:26:07;;;;;;;0.15;0.15;;;;;;;;;;5016474;28;20070;-79
2023/12/26 16:28:35;;;;;;;0.38;0.38;;;;;;;;;;5012810;28;20056;-79
2023/12/26 16:31:04;;;;;;;0.13;0.13;;;;;;;;;;4998158;28;20046;-79
2023/12/26 16:33:32;;;;;;;0.43;0.28;;;;;;;;;;5016988;28;20124;-79
2023/12/26 16:36:03;;;;;;;0.57;0.57;;;;;;;;;;5006407;28;20096;-79
2023/12/26 16:38:31;;;;;;;0.10;0.10;;;;;;;;;;5017502;28;20050;-79